createdAt,value
2022-09-23T00:01:34.107Z,101864.00
2022-09-23T00:04:00.502Z,101856.06
2022-09-23T00:06:28.168Z,101853.38
2022-09-23T00:08:54.838Z,101859.50
2022-09-23T00:11:22.943Z,101852.44
2022-09-23T00:13:50.802Z,101856.75
2022-09-23T00:16:19.229Z,101848.81
2022-09-23T00:18:45.662Z,101852.25
2022-09-23T00:21:13.396Z,101846.94
2022-09-23T00:23:40.625Z,101848.69
2022-09-23T00:26:07.925Z,101846.03
2022-09-23T00:28:34.720Z,101839.88
2022-09-23T00:31:05.579Z,101842.53
2022-09-23T00:33:31.926Z,101842.59
2022-09-23T00:35:58.888Z,101841.63
2022-09-23T00:38:25.149Z,101829.22
2022-09-23T00:40:51.611Z,101839.69
2022-09-23T00:43:17.923Z,101822.06
2022-09-23T00:45:46.895Z,101826.41
2022-09-23T00:48:20.357Z,101829.88
2022-09-23T00:50:51.551Z,101829.88
2022-09-23T00:53:21.117Z,101827.25
2022-09-23T00:55:53.016Z,101820.28
2022-09-23T00:58:21.559Z,101818.44
2022-09-23T01:00:47.852Z,101818.34
2022-09-23T01:03:14.347Z,101821.84
2022-09-23T01:05:41.491Z,101806.81
2022-09-23T01:08:09.106Z,101807.56
2022-09-23T01:10:40.296Z,101808.31
2022-09-23T01:13:18.353Z,101811.66
2022-09-23T01:15:48.472Z,101803.69
2022-09-23T01:18:33.328Z,101804.41
2022-09-23T01:21:07.836Z,101797.41
2022-09-23T01:23:40.004Z,101798.22
2022-09-23T01:26:06.230Z,101791.06
2022-09-23T01:28:54.119Z,101792.72
2022-09-23T01:31:26.537Z,101796.16
2022-09-23T01:33:56.621Z,101789.94
2022-09-23T01:36:27.793Z,101782.00
2022-09-23T01:39:08.637Z,101783.72
2022-09-23T01:41:44.168Z,101783.66
2022-09-23T01:44:17.446Z,101773.13
2022-09-23T01:47:02.390Z,101769.50
2022-09-23T01:49:32.515Z,101779.09
2022-09-23T01:52:06.953Z,101771.16
2022-09-23T01:54:38.812Z,101767.53
2022-09-23T01:57:09.497Z,101768.47
2022-09-23T01:59:38.222Z,101771.22
2022-09-23T02:02:10.001Z,101763.41
2022-09-23T02:04:49.143Z,101767.00
2022-09-23T02:07:24.384Z,101761.84
2022-09-23T02:09:57.503Z,101761.84
2022-09-23T02:12:27.093Z,101753.06
2022-09-23T02:14:58.403Z,101757.41
2022-09-23T02:17:30.302Z,101753.00
2022-09-23T02:20:01.534Z,101753.97
2022-09-23T02:22:36.578Z,101751.38
2022-09-23T02:25:03.695Z,101753.22
2022-09-23T02:27:34.984Z,101747.06
2022-09-23T02:30:01.233Z,101748.00
2022-09-23T02:32:46.150Z,101736.66
2022-09-23T02:35:20.076Z,101738.41
2022-09-23T02:38:01.344Z,101741.13
2022-09-23T02:40:34.627Z,101731.53
2022-09-23T02:43:03.758Z,101727.25
2022-09-23T02:45:30.930Z,101725.50
2022-09-23T02:48:01.010Z,101730.88
2022-09-23T02:50:30.889Z,101722.16
2022-09-23T02:52:57.967Z,101719.53
2022-09-23T02:55:26.613Z,101719.53
2022-09-23T02:57:53.327Z,101724.78
2022-09-23T03:00:20.439Z,101724.78
2022-09-23T03:03:04.353Z,101721.47
2022-09-23T03:05:33.866Z,101725.03
2022-09-23T03:08:19.532Z,101720.66
2022-09-23T03:10:54.165Z,101718.13
2022-09-23T03:13:29.881Z,101709.53
2022-09-23T03:16:05.088Z,101709.63
2022-09-23T03:18:31.626Z,101706.25
2022-09-23T03:21:02.005Z,101698.38
2022-09-23T03:23:31.451Z,101699.38
2022-09-23T03:26:00.038Z,101695.94
2022-09-23T03:28:27.156Z,101687.19
2022-09-23T03:30:54.447Z,101688.16
2022-09-23T03:33:28.405Z,101688.16
2022-09-23T03:36:18.197Z,101685.59
2022-09-23T03:38:45.750Z,101684.88
2022-09-23T03:41:16.630Z,101679.75
2022-09-23T03:43:44.134Z,101677.22
2022-09-23T03:46:10.779Z,101678.13
2022-09-23T03:48:37.126Z,101670.34
2022-09-23T03:51:08.674Z,101666.03
2022-09-23T03:53:34.943Z,101664.34
2022-09-23T03:56:01.361Z,101667.00
2022-09-23T03:58:27.720Z,101671.38
2022-09-23T04:00:54.726Z,101660.00
2022-09-23T04:03:22.305Z,101663.59
2022-09-23T04:05:48.738Z,101657.50
2022-09-23T04:08:15.011Z,101652.31
2022-09-23T04:10:41.777Z,101655.94
2022-09-23T04:13:08.998Z,101654.25
2022-09-23T04:15:35.265Z,101649.03
2022-09-23T04:18:01.493Z,101650.03
2022-09-23T04:20:28.911Z,101648.41
2022-09-23T04:22:56.250Z,101650.25
2022-09-23T04:25:22.489Z,101643.31
2022-09-23T04:27:48.738Z,101641.63
2022-09-23T04:30:15.050Z,101636.44
2022-09-23T04:32:41.298Z,101635.56
2022-09-23T04:35:07.917Z,101630.34
2022-09-23T04:37:34.170Z,101631.25
2022-09-23T04:40:00.581Z,101630.44
2022-09-23T04:42:28.492Z,101625.22
2022-09-23T04:44:54.732Z,101629.66
2022-09-23T04:47:20.978Z,101626.25
2022-09-23T04:49:47.228Z,101628.91
2022-09-23T04:52:13.477Z,101623.69
2022-09-23T04:54:41.480Z,101625.47
2022-09-23T04:57:10.975Z,101628.13
2022-09-23T04:59:37.298Z,101629.06
2022-09-23T05:02:03.664Z,101630.09
2022-09-23T05:04:31.361Z,101621.38
2022-09-23T05:07:02.850Z,101621.38
2022-09-23T05:09:29.647Z,101626.69
2022-09-23T05:11:55.944Z,101626.69
2022-09-23T05:14:22.295Z,101620.56
2022-09-23T05:16:48.647Z,101624.06
2022-09-23T05:19:15.443Z,101623.19
2022-09-23T05:21:41.781Z,101621.47
2022-09-23T05:24:08.700Z,101629.44
2022-09-23T05:26:34.993Z,101622.50
2022-09-23T05:29:01.272Z,101625.19
2022-09-23T05:31:28.451Z,101613.84
2022-09-23T05:33:59.136Z,101613.84
2022-09-23T05:36:26.461Z,101617.38
2022-09-23T05:38:52.861Z,101606.84
2022-09-23T05:41:20.669Z,101609.59
2022-09-23T05:43:47.327Z,101602.66
2022-09-23T05:46:14.518Z,101601.84
2022-09-23T05:48:41.705Z,101591.47
2022-09-23T05:51:09.121Z,101603.09
2022-09-23T05:53:37.014Z,101600.63
2022-09-23T05:58:34.652Z,101595.56
2022-09-23T06:01:01.001Z,101596.50
2022-09-23T06:03:27.329Z,101605.38
2022-09-23T06:05:54.459Z,101596.69
2022-09-23T06:08:21.806Z,101585.34
2022-09-23T06:10:53.596Z,101593.28
2022-09-23T06:13:20.759Z,101595.97
2022-09-23T06:15:47.179Z,101592.59
2022-09-23T06:18:13.526Z,101595.28
2022-09-23T06:20:40.035Z,101591.88
2022-09-23T06:23:10.344Z,101597.19
2022-09-23T06:25:38.396Z,101591.13
2022-09-23T06:28:05.164Z,101596.47
2022-09-23T06:30:31.407Z,101591.28
2022-09-23T06:32:58.063Z,101602.78
2022-09-23T06:35:27.643Z,101595.69
2022-09-23T06:37:54.700Z,101594.88
2022-09-23T06:40:22.365Z,101590.47
2022-09-23T06:42:52.162Z,101589.59
2022-09-23T06:45:18.737Z,101586.97
2022-09-23T06:47:44.986Z,101581.66
2022-09-23T06:50:12.503Z,101583.41
2022-09-23T06:52:39.010Z,101585.16
2022-09-23T06:55:05.533Z,101582.50
2022-09-23T06:57:32.762Z,101584.22
2022-09-23T06:59:59.173Z,101586.94
2022-09-23T07:02:26.354Z,101593.22
2022-09-23T07:04:52.977Z,101592.50
2022-09-23T07:07:19.232Z,101592.66
2022-09-23T07:09:45.965Z,101601.59
2022-09-23T07:12:12.327Z,101599.97
2022-09-23T07:14:38.583Z,101600.19
2022-09-23T07:17:04.876Z,101597.63
2022-09-23T07:19:31.153Z,101596.03
2022-09-23T07:21:57.491Z,101594.34
2022-09-23T07:24:23.835Z,101595.31
2022-09-23T07:26:50.102Z,101591.81
2022-09-23T07:29:16.388Z,101593.63
2022-09-23T07:31:42.670Z,101584.00
2022-09-23T07:34:11.409Z,101592.13
2022-09-23T07:36:41.065Z,101592.97
2022-09-23T07:39:08.722Z,101595.66
2022-09-23T07:41:35.043Z,101591.25
2022-09-23T07:44:01.740Z,101592.16
2022-09-23T07:46:29.651Z,101587.78
2022-09-23T07:48:56.070Z,101588.72
2022-09-23T07:51:24.043Z,101590.66
2022-09-23T07:53:51.296Z,101580.28
2022-09-23T07:56:19.321Z,101592.84
2022-09-23T07:59:00.174Z,101592.13
2022-09-23T08:01:29.142Z,101585.22
2022-09-23T08:03:59.450Z,101581.84
2022-09-23T08:06:25.939Z,101586.41
2022-09-23T08:08:53.431Z,101590.03
2022-09-23T08:11:20.308Z,101583.88
2022-09-23T08:13:46.620Z,101577.75
2022-09-23T08:16:12.959Z,101576.00
2022-09-23T08:18:39.370Z,101576.06
2022-09-23T08:21:05.667Z,101577.03
2022-09-23T08:23:33.521Z,101569.09
2022-09-23T08:26:01.588Z,101581.53
2022-09-23T08:28:28.447Z,101578.03
2022-09-23T08:30:55.176Z,101574.53
2022-09-23T08:33:23.626Z,101564.78
2022-09-23T08:35:50.211Z,101569.22
2022-09-23T08:38:16.477Z,101568.31
2022-09-23T08:40:44.899Z,101572.75
2022-09-23T08:43:18.638Z,101558.63
2022-09-23T08:45:45.756Z,101562.13
2022-09-23T08:48:17.341Z,101554.16
2022-09-23T08:50:46.413Z,101556.81
2022-09-23T08:53:18.159Z,101559.50
2022-09-23T08:55:48.104Z,101561.25
2022-09-23T08:58:26.203Z,101552.41
2022-09-23T09:01:02.906Z,101553.31
2022-09-23T09:03:34.243Z,101548.88
2022-09-23T09:06:00.883Z,101550.59
2022-09-23T09:08:37.346Z,101545.28
2022-09-23T09:11:05.709Z,101536.38
2022-09-23T09:13:33.462Z,101537.19
2022-09-23T09:16:05.653Z,101531.88
2022-09-23T09:18:34.149Z,101534.53
2022-09-23T09:21:09.899Z,101528.31
2022-09-23T09:23:53.975Z,101521.25
2022-09-23T09:26:25.294Z,101524.81
2022-09-23T09:29:16.848Z,101526.59
2022-09-23T09:31:49.489Z,101521.25
2022-09-23T09:34:20.156Z,101518.56
2022-09-23T09:37:07.165Z,101516.69
2022-09-23T09:39:34.897Z,101519.28
2022-09-23T09:42:01.793Z,101522.00
2022-09-23T09:44:42.332Z,101512.22
2022-09-23T09:47:20.956Z,101509.56
2022-09-23T09:49:54.013Z,101508.72
2022-09-23T09:52:22.523Z,101506.13
2022-09-23T09:54:49.653Z,101504.38
2022-09-23T09:57:18.362Z,101495.41
2022-09-23T09:59:44.621Z,101504.91
2022-09-23T10:02:34.153Z,101495.84
2022-09-23T10:05:02.122Z,101493.91
2022-09-23T10:07:30.117Z,101484.16
2022-09-23T10:10:01.803Z,101484.00
2022-09-23T10:12:43.799Z,101474.09
2022-09-23T10:15:25.937Z,101473.03
2022-09-23T10:17:52.390Z,101475.81
2022-09-23T10:20:18.789Z,101479.31
2022-09-23T10:22:47.035Z,101464.47
2022-09-23T10:25:19.197Z,101471.66
2022-09-23T10:27:45.575Z,101474.31
2022-09-23T10:30:12.147Z,101479.56
2022-09-23T10:32:43.756Z,101480.22
2022-09-23T10:35:11.225Z,101479.00
2022-09-23T10:37:39.682Z,101471.69
2022-09-23T10:40:45.463Z,101476.09
2022-09-23T10:43:30.834Z,101474.19
2022-09-23T10:46:20.920Z,101471.34
2022-09-23T10:49:02.976Z,101476.38
2022-09-23T10:51:35.442Z,101479.13
2022-09-23T10:54:14.014Z,101471.16
2022-09-23T10:56:43.192Z,101463.94
2022-09-23T10:59:27.133Z,101466.44
2022-09-23T11:02:12.042Z,101462.69
2022-09-23T11:04:43.958Z,101467.00
2022-09-23T11:07:17.145Z,101459.78
2022-09-23T11:10:35.301Z,101456.91
2022-09-23T11:13:15.355Z,101455.75
2022-09-23T11:15:53.635Z,101452.16
2022-09-23T11:18:34.505Z,101449.06
2022-09-23T11:21:09.596Z,101445.19
2022-09-23T11:23:48.289Z,101444.47
2022-09-23T11:26:32.883Z,101446.00
2022-09-23T11:29:00.300Z,101438.38
2022-09-23T11:31:35.947Z,101439.25
2022-09-23T11:34:18.436Z,101433.34
2022-09-23T11:36:49.786Z,101428.97
2022-09-23T11:39:30.945Z,101427.19
2022-09-23T11:41:59.324Z,101422.50
2022-09-23T11:44:26.265Z,101428.38
2022-09-23T11:46:55.663Z,101421.78
2022-09-23T11:49:32.866Z,101421.19
2022-09-23T11:52:19.653Z,101410.94
2022-09-23T11:54:49.515Z,101410.19
2022-09-23T11:57:24.890Z,101409.47
2022-09-23T11:59:56.983Z,101415.66
2022-09-23T12:02:31.071Z,101411.31
2022-09-23T12:05:08.250Z,101407.94
2022-09-23T12:07:44.134Z,101405.50
2022-09-23T12:10:11.828Z,101401.47
2022-09-23T12:12:38.148Z,101399.53
2022-09-23T12:15:06.889Z,101398.59
2022-09-23T12:17:38.888Z,101396.25
2022-09-23T12:20:20.702Z,101394.38
2022-09-23T12:22:49.698Z,101390.59
2022-09-23T12:25:34.981Z,101390.88
2022-09-23T12:28:06.195Z,101385.38
2022-09-23T12:30:33.940Z,101382.06
2022-09-23T12:33:07.899Z,101382.50
2022-09-23T12:35:41.801Z,101380.44
2022-09-23T12:38:33.014Z,101378.53
2022-09-23T12:40:59.476Z,101372.75
2022-09-23T12:43:30.383Z,101366.00
2022-09-23T12:46:16.361Z,101371.47
2022-09-23T12:48:44.152Z,101365.31
2022-09-23T12:51:13.173Z,101366.69
2022-09-23T12:53:40.061Z,101362.38
2022-09-23T12:56:29.417Z,101361.38
2022-09-23T12:59:14.800Z,101357.41
2022-09-23T13:01:42.455Z,101363.06
2022-09-23T13:04:46.620Z,101366.16
2022-09-23T13:07:21.272Z,101372.28
2022-09-23T13:09:49.471Z,101362.31
2022-09-23T13:12:38.690Z,101356.22
2022-09-23T13:15:28.455Z,101359.97
2022-09-23T13:18:14.710Z,101351.34
2022-09-23T13:20:41.080Z,101339.00
2022-09-23T13:23:20.185Z,101343.28
2022-09-23T13:25:46.456Z,101340.59
2022-09-23T13:28:19.762Z,101342.53
2022-09-23T13:30:52.262Z,101331.19
2022-09-23T13:33:24.022Z,101331.31
2022-09-23T13:35:51.294Z,101328.28
2022-09-23T13:41:15.108Z,101328.06
2022-09-23T13:43:47.784Z,101319.84
2022-09-23T13:46:19.486Z,101330.09
2022-09-23T13:48:47.583Z,101327.25
2022-09-23T13:51:25.816Z,101316.91
2022-09-23T13:53:53.573Z,101311.06
2022-09-23T13:59:22.480Z,101308.06
2022-09-23T14:01:48.870Z,101309.03
2022-09-23T14:04:27.648Z,101306.00
2022-09-23T14:06:56.793Z,101298.88
2022-09-23T14:09:25.051Z,101309.81
2022-09-23T14:11:51.891Z,101303.69
2022-09-23T14:14:18.387Z,101298.53
2022-09-23T14:16:44.810Z,101302.41
2022-09-23T14:19:17.557Z,101297.28
2022-09-23T14:21:43.825Z,101292.84
2022-09-23T14:24:10.140Z,101285.84
2022-09-23T14:26:36.820Z,101284.25
2022-09-23T14:29:03.394Z,101283.66
2022-09-23T14:31:30.242Z,101290.88
2022-09-23T14:33:56.512Z,101293.88
2022-09-23T14:36:41.246Z,101291.00
2022-09-23T14:39:09.326Z,101282.97
2022-09-23T14:41:40.973Z,101292.09
2022-09-23T14:44:07.932Z,101285.84
2022-09-23T14:46:38.493Z,101280.47
2022-09-23T14:49:10.768Z,101277.66
2022-09-23T14:51:50.827Z,101278.03
2022-09-23T14:54:24.115Z,101275.75
2022-09-23T14:56:50.393Z,101275.06
2022-09-23T14:59:25.427Z,101265.31
2022-09-23T15:01:51.700Z,101270.94
2022-09-23T15:04:30.326Z,101267.50
2022-09-23T15:06:59.405Z,101263.19
2022-09-23T15:09:28.778Z,101250.78
2022-09-23T15:12:02.842Z,101267.75
2022-09-23T15:14:41.221Z,101262.56
2022-09-23T15:17:30.043Z,101262.75
2022-09-23T15:19:58.035Z,101263.56
2022-09-23T15:22:24.820Z,101259.19
2022-09-23T15:24:53.032Z,101265.44
2022-09-23T15:27:30.698Z,101260.16
2022-09-23T15:30:14.673Z,101260.25
2022-09-23T15:32:42.279Z,101255.03
2022-09-23T15:35:12.283Z,101256.94
2022-09-23T15:37:38.632Z,101256.13
2022-09-23T15:40:05.455Z,101259.78
2022-09-23T15:42:31.845Z,101253.63
2022-09-23T15:44:58.260Z,101252.91
2022-09-23T15:47:24.504Z,101248.75
2022-09-23T15:49:51.256Z,101256.03
2022-09-23T15:52:17.600Z,101252.78
2022-09-23T15:54:43.874Z,101251.28
2022-09-23T15:57:11.078Z,101254.16
2022-09-23T15:59:38.111Z,101248.09
2022-09-23T16:02:07.775Z,101261.47
2022-09-23T16:04:35.964Z,101260.63
2022-09-23T16:07:04.424Z,101257.97
2022-09-23T16:09:31.490Z,101249.13
2022-09-23T16:11:57.749Z,101249.16
2022-09-23T16:14:24.278Z,101252.75
2022-09-23T16:16:50.566Z,101255.44
2022-09-23T16:19:17.710Z,101249.25
2022-09-23T16:21:44.625Z,101240.38
2022-09-23T16:24:14.322Z,101242.31
2022-09-23T16:26:40.666Z,101244.31
2022-09-23T16:29:07.083Z,101243.66
2022-09-23T16:31:33.449Z,101245.69
2022-09-23T16:34:02.527Z,101242.28
2022-09-23T16:36:32.783Z,101246.78
2022-09-23T16:39:00.105Z,101245.09
2022-09-23T16:41:29.400Z,101245.16
2022-09-23T16:43:56.199Z,101239.06
2022-09-23T16:46:23.870Z,101240.97
2022-09-23T16:48:52.839Z,101241.13
2022-09-23T16:51:21.043Z,101243.00
2022-09-23T16:53:49.224Z,101236.03
2022-09-23T16:56:16.868Z,101241.44
2022-09-23T16:58:43.952Z,101230.94
2022-09-23T17:01:33.884Z,101239.00
2022-09-23T17:04:00.676Z,101232.00
2022-09-23T17:06:29.979Z,101225.00
2022-09-23T17:08:56.282Z,101232.16
2022-09-23T17:11:22.566Z,101232.28
2022-09-23T17:13:49.333Z,101242.06
2022-09-23T17:16:23.351Z,101243.84
2022-09-23T17:18:49.693Z,101243.06
2022-09-23T17:21:15.992Z,101239.56
2022-09-23T17:23:42.291Z,101238.75
2022-09-23T17:26:12.443Z,101237.94
2022-09-23T17:28:38.777Z,101244.19
2022-09-23T17:31:05.849Z,101245.16
2022-09-23T17:33:33.171Z,101244.34
2022-09-23T17:36:02.721Z,101242.59
2022-09-23T17:38:29.678Z,101240.88
2022-09-23T17:40:57.081Z,101237.38
2022-09-23T17:43:26.046Z,101239.19
2022-09-23T17:45:54.325Z,101237.44
2022-09-23T17:48:21.733Z,101236.59
2022-09-23T17:50:57.737Z,101232.22
2022-09-23T17:53:24.561Z,101229.59
2022-09-23T17:56:00.731Z,101232.25
2022-09-23T17:58:27.987Z,101234.06
2022-09-23T18:00:54.632Z,101239.38
2022-09-23T18:03:21.172Z,101239.41
2022-09-23T18:05:47.606Z,101233.22
2022-09-23T18:08:13.882Z,101242.09
2022-09-23T18:10:40.127Z,101236.81
2022-09-23T18:13:06.500Z,101231.53
2022-09-23T18:15:36.788Z,101220.91
2022-09-23T18:18:03.751Z,101233.28
2022-09-23T18:20:30.554Z,101234.19
2022-09-23T18:22:56.819Z,101228.00
2022-09-23T18:25:38.556Z,101228.91
2022-09-23T18:28:06.057Z,101234.22
2022-09-23T18:30:33.385Z,101239.50
2022-09-23T18:32:59.725Z,101234.25
2022-09-23T18:35:26.089Z,101240.44
2022-09-23T18:37:52.370Z,101235.13
2022-09-23T18:40:19.049Z,101244.84
2022-09-23T18:42:45.356Z,101241.34
2022-09-23T18:45:11.891Z,101248.41
2022-09-23T18:47:57.151Z,101250.19
2022-09-23T18:50:43.221Z,101252.84
2022-09-23T18:53:09.890Z,101247.53
2022-09-23T18:55:36.599Z,101255.47
2022-09-23T18:58:03.272Z,101252.81
2022-09-23T19:00:30.056Z,101257.25
2022-09-23T19:02:56.520Z,101256.38
2022-09-23T19:05:22.774Z,101254.63
2022-09-23T19:07:49.058Z,101251.94
2022-09-23T19:10:15.346Z,101252.81
2022-09-23T19:12:41.596Z,101255.47
2022-09-23T19:15:08.097Z,101254.59
2022-09-23T19:17:34.444Z,101252.81
2022-09-23T19:20:00.810Z,101257.22
2022-09-23T19:22:27.126Z,101253.69
2022-09-23T19:24:53.358Z,101248.38
2022-09-23T19:27:19.615Z,101247.50
2022-09-23T19:29:47.312Z,101252.75
2022-09-23T19:32:15.903Z,101251.88
2022-09-23T19:34:42.148Z,101246.56
2022-09-23T19:37:08.443Z,101243.03
2022-09-23T19:39:37.341Z,101241.28
2022-09-23T19:42:03.822Z,101239.50
2022-09-23T19:44:30.187Z,101236.84
2022-09-23T19:46:57.415Z,101235.94
2022-09-23T19:49:24.724Z,101232.44
2022-09-23T19:51:51.317Z,101242.97
2022-09-23T19:54:20.831Z,101245.59
2022-09-23T19:56:50.499Z,101240.31
2022-09-23T19:59:19.163Z,101240.28
2022-09-23T20:01:46.302Z,101237.66
2022-09-23T20:04:12.684Z,101232.34
2022-09-23T20:06:39.410Z,101238.53
2022-09-23T20:09:06.152Z,101237.66
2022-09-23T20:11:33.385Z,101235.00
2022-09-23T20:14:02.185Z,101230.56
2022-09-23T20:16:31.918Z,101241.13
2022-09-23T20:18:59.778Z,101230.53
2022-09-23T20:21:26.768Z,101228.75
2022-09-23T20:23:53.305Z,101224.34
2022-09-23T20:26:38.345Z,101225.22
2022-09-23T20:29:04.751Z,101221.66
2022-09-23T20:31:32.119Z,101219.91
2022-09-23T20:33:58.830Z,101220.75
2022-09-23T20:36:25.769Z,101218.06
2022-09-23T20:38:59.660Z,101219.81
2022-09-23T20:41:26.668Z,101213.63
2022-09-23T20:43:58.759Z,101210.94
2022-09-23T20:46:25.791Z,101210.06
2022-09-23T20:48:52.089Z,101220.63
2022-09-23T20:51:18.327Z,101207.38
2022-09-23T20:53:45.629Z,101210.88
2022-09-23T20:56:12.871Z,101221.41
2022-09-23T20:58:39.166Z,101210.81
2022-09-23T21:01:10.607Z,101207.28
2022-09-23T21:03:39.390Z,101197.59
2022-09-23T21:06:07.183Z,101208.13
2022-09-23T21:08:34.310Z,101204.59
2022-09-23T21:11:02.430Z,101210.75
2022-09-23T21:13:29.345Z,101206.31
2022-09-23T21:15:55.753Z,101203.63
2022-09-23T21:18:24.015Z,101208.03
2022-09-23T21:20:54.051Z,101204.50
2022-09-23T21:23:23.242Z,101196.56
2022-09-23T21:25:49.552Z,101198.31
2022-09-23T21:28:15.815Z,101200.94
2022-09-23T21:30:42.121Z,101200.03
2022-09-23T21:33:08.360Z,101201.75
2022-09-23T21:35:34.666Z,101199.09
2022-09-23T21:38:00.951Z,101199.06
2022-09-23T21:40:46.154Z,101195.56
2022-09-23T21:43:12.494Z,101198.16
2022-09-23T21:45:39.049Z,101202.56
2022-09-23T21:48:05.322Z,101204.28
2022-09-23T21:50:32.275Z,101206.03
2022-09-23T21:52:58.571Z,101198.97
2022-09-23T21:55:25.429Z,101205.97
2022-09-23T21:57:51.697Z,101209.47
2022-09-23T22:00:17.978Z,101201.50
2022-09-23T22:02:44.236Z,101204.16
2022-09-23T22:05:10.799Z,101204.13
2022-09-23T22:07:38.077Z,101205.84
2022-09-23T22:10:05.845Z,101199.69
2022-09-23T22:12:33.423Z,101201.41
2022-09-23T22:14:59.706Z,101197.88
2022-09-23T22:17:25.953Z,101201.41
2022-09-23T22:19:52.210Z,101189.94
2022-09-23T22:22:18.810Z,101197.00
2022-09-23T22:24:46.070Z,101191.72
2022-09-23T22:27:13.247Z,101193.47
2022-09-23T22:29:58.290Z,101187.28
2022-09-23T22:32:46.056Z,101190.81
2022-09-23T22:35:13.560Z,101190.81
2022-09-23T22:37:39.812Z,101186.41
2022-09-23T22:40:07.235Z,101189.91
2022-09-23T22:42:34.025Z,101193.38
2022-09-23T22:45:00.484Z,101190.75
2022-09-23T22:47:27.074Z,101194.25
2022-09-23T22:49:55.257Z,101190.72
2022-09-23T22:52:24.203Z,101184.56
2022-09-23T22:54:51.363Z,101194.22
2022-09-23T22:57:19.154Z,101182.75
2022-09-23T22:59:48.093Z,101183.63
2022-09-23T23:02:16.217Z,101173.91
2022-09-23T23:04:45.113Z,101180.06
2022-09-23T23:07:14.999Z,101180.91
2022-09-23T23:09:41.686Z,101180.88
2022-09-23T23:12:08.131Z,101179.09
2022-09-23T23:14:35.721Z,101173.81
2022-09-23T23:17:01.973Z,101181.69
2022-09-23T23:19:28.277Z,101175.53
2022-09-23T23:21:54.522Z,101174.66
2022-09-23T23:24:24.001Z,101175.53
2022-09-23T23:26:51.153Z,101176.41
2022-09-23T23:29:18.354Z,101171.16
2022-09-23T23:31:44.844Z,101166.72
2022-09-23T23:34:12.499Z,101167.63
2022-09-23T23:36:39.836Z,101166.75
2022-09-23T23:39:06.896Z,101164.09
2022-09-23T23:41:33.182Z,101161.44
2022-09-23T23:44:00.466Z,101159.66
2022-09-23T23:46:28.558Z,101159.66
2022-09-23T23:48:55.823Z,101163.16
2022-09-23T23:51:23.033Z,101165.78
2022-09-23T23:53:49.296Z,101159.63
2022-09-23T23:56:17.000Z,101159.63
2022-09-23T23:58:43.629Z,101156.97
